createdAt,value
2023-01-23T00:02:34.609Z,100022.27
2023-01-23T00:05:11.027Z,100025.26
2023-01-23T00:07:43.721Z,100024.41
2023-01-23T00:10:16.399Z,100022.96
2023-01-23T00:12:50.527Z,100024.45
2023-01-23T00:15:50.371Z,100026.06
2023-01-23T00:18:22.964Z,100026.91
2023-01-23T00:21:02.480Z,100029.45
2023-01-23T00:23:40.099Z,100041.95
2023-01-23T00:26:37.912Z,100049.48
2023-01-23T00:29:12.309Z,100054.17
2023-01-23T00:31:49.539Z,100061.86
2023-01-23T00:38:12.043Z,100069.48
2023-01-23T00:40:46.911Z,100072.51
2023-01-23T00:43:20.821Z,100074.30
2023-01-23T00:46:24.523Z,100077.69
2023-01-23T00:49:00.221Z,100080.34
2023-01-23T00:55:24.603Z,100074.73
2023-01-23T00:58:22.564Z,100082.52
2023-01-23T01:01:01.352Z,100081.16
2023-01-23T01:04:32.128Z,100083.90
2023-01-23T01:07:32.906Z,100085.98
2023-01-23T01:10:05.779Z,100084.58
2023-01-23T01:12:41.360Z,100083.25
2023-01-23T01:15:17.066Z,100081.84
2023-01-23T01:18:20.950Z,100074.39
2023-01-23T01:20:53.917Z,100076.71
2023-01-23T01:23:27.153Z,100073.83
2023-01-23T01:26:32.718Z,100076.23
2023-01-23T01:30:20.733Z,100083.92
2023-01-23T01:32:57.335Z,100086.02
2023-01-23T01:36:18.504Z,100089.52
2023-01-23T01:38:51.677Z,100101.09
2023-01-23T01:41:26.264Z,100096.87
2023-01-23T01:44:00.355Z,100097.59
2023-01-23T01:46:33.293Z,100090.52
2023-01-23T01:49:32.437Z,100089.63
2023-01-23T01:52:08.397Z,100098.92
2023-01-23T01:55:33.633Z,100098.27
2023-01-23T01:58:11.315Z,100100.34
2023-01-23T02:01:31.945Z,100101.77
2023-01-23T02:04:08.508Z,100104.11
2023-01-23T02:06:42.305Z,100106.05
2023-01-23T02:09:29.546Z,100111.29
2023-01-23T02:12:30.968Z,100110.34
2023-01-23T02:15:05.438Z,100113.29
2023-01-23T02:17:42.419Z,100108.02
2023-01-23T02:21:03.302Z,100102.26
2023-01-23T02:24:09.054Z,100101.30
2023-01-23T02:26:48.666Z,100109.52
2023-01-23T02:29:23.071Z,100107.98
2023-01-23T02:31:57.975Z,100114.80
2023-01-23T02:35:04.818Z,100114.27
2023-01-23T02:38:02.008Z,100119.04
2023-01-23T02:40:40.709Z,100118.96
2023-01-23T02:44:01.464Z,100123.20
2023-01-23T02:46:34.723Z,100127.10
2023-01-23T02:49:15.905Z,100135.08
2023-01-23T02:52:42.044Z,100129.98
2023-01-23T02:55:14.998Z,100129.57
2023-01-23T02:58:16.084Z,100132.27
2023-01-23T03:11:12.272Z,100138.45
2023-01-23T03:17:36.592Z,100143.80
2023-01-23T03:20:34.211Z,100139.44
2023-01-23T03:23:10.537Z,100141.78
2023-01-23T03:32:30.769Z,100136.63
2023-01-23T03:35:04.101Z,100141.27
2023-01-23T03:37:36.025Z,100146.04
2023-01-23T03:43:27.613Z,100142.66
2023-01-23T03:46:03.241Z,100146.73
2023-01-23T03:49:24.179Z,100149.43
2023-01-23T03:52:46.322Z,100145.98
2023-01-23T03:55:22.747Z,100141.48
2023-01-23T03:58:04.714Z,100147.42
2023-01-23T04:04:24.284Z,100145.46
2023-01-23T04:07:22.914Z,100144.98
2023-01-23T04:09:59.889Z,100144.38
2023-01-23T04:12:36.140Z,100133.99
2023-01-23T04:15:12.908Z,100130.24
2023-01-23T04:17:52.038Z,100136.77
2023-01-23T04:20:54.455Z,100149.41
2023-01-23T04:26:50.051Z,100155.17
2023-01-23T04:29:23.566Z,100154.47
2023-01-23T04:31:57.351Z,100150.93
2023-01-23T04:34:33.381Z,100161.48
2023-01-23T04:37:07.779Z,100167.23
2023-01-23T04:39:42.285Z,100169.52
2023-01-23T04:42:16.585Z,100171.51
2023-01-23T04:45:39.829Z,100175.09
2023-01-23T04:48:17.265Z,100177.56
2023-01-23T04:51:20.617Z,100185.45
2023-01-23T04:53:56.625Z,100188.27
2023-01-23T04:56:31.505Z,100196.55
2023-01-23T04:59:10.167Z,100196.18
2023-01-23T05:05:16.887Z,100195.10
2023-01-23T05:07:53.609Z,100196.85
2023-01-23T05:11:38.030Z,100204.80
2023-01-23T05:14:13.655Z,100203.00
2023-01-23T05:16:48.480Z,100205.50
2023-01-23T05:19:50.135Z,100206.68
2023-01-23T05:22:48.819Z,100211.24
2023-01-23T05:25:23.344Z,100207.77
2023-01-23T05:29:06.156Z,100208.38
2023-01-23T05:31:41.163Z,100210.48
2023-01-23T05:34:14.937Z,100207.80
2023-01-23T05:36:50.776Z,100206.93
2023-01-23T05:39:25.214Z,100212.10
2023-01-23T05:42:04.850Z,100209.70
2023-01-23T05:44:41.902Z,100207.59
2023-01-23T05:48:08.329Z,100208.98
2023-01-23T05:50:41.999Z,100208.87
2023-01-23T05:53:48.059Z,100216.52
2023-01-23T05:56:23.234Z,100217.97
2023-01-23T05:58:56.751Z,100218.58
2023-01-23T06:01:34.578Z,100226.33
2023-01-23T06:04:33.779Z,100226.66
2023-01-23T06:08:19.176Z,100238.19
2023-01-23T06:11:21.532Z,100234.24
2023-01-23T06:14:18.326Z,100230.81
2023-01-23T06:16:51.611Z,100233.70
2023-01-23T06:19:26.075Z,100242.64
2023-01-23T06:22:48.429Z,100248.45
2023-01-23T06:26:13.864Z,100256.71
2023-01-23T06:29:15.374Z,100266.03
2023-01-23T06:31:50.989Z,100269.95
2023-01-23T06:35:36.137Z,100272.75
2023-01-23T06:38:08.333Z,100281.82
2023-01-23T06:40:42.988Z,100289.78
2023-01-23T06:43:18.474Z,100290.62
2023-01-23T06:45:53.547Z,100285.30
2023-01-23T06:49:18.367Z,100287.52
2023-01-23T06:51:51.010Z,100291.95
2023-01-23T06:57:25.754Z,100295.61
2023-01-23T07:00:04.289Z,100295.06
2023-01-23T07:02:44.676Z,100295.61
2023-01-23T07:05:21.577Z,100295.83
2023-01-23T07:08:23.851Z,100296.66
2023-01-23T07:11:44.753Z,100295.36
2023-01-23T07:14:43.456Z,100298.45
2023-01-23T07:17:44.010Z,100304.41
2023-01-23T07:20:18.858Z,100310.69
2023-01-23T07:22:53.173Z,100311.21
2023-01-23T07:25:27.033Z,100314.48
2023-01-23T07:28:24.974Z,100315.59
2023-01-23T07:31:00.282Z,100317.19
2023-01-23T07:34:06.156Z,100316.34
2023-01-23T07:36:49.366Z,100311.08
2023-01-23T07:40:10.384Z,100316.72
2023-01-23T07:42:50.185Z,100316.10
2023-01-23T07:45:51.991Z,100315.38
2023-01-23T07:48:26.499Z,100316.62
2023-01-23T07:51:24.716Z,100319.02
2023-01-23T07:53:58.910Z,100322.52
2023-01-23T07:56:34.686Z,100327.21
2023-01-23T07:59:09.156Z,100327.48
2023-01-23T08:01:43.909Z,100328.16
2023-01-23T08:04:16.471Z,100331.48
2023-01-23T08:06:49.287Z,100334.84
2023-01-23T08:09:23.727Z,100338.48
2023-01-23T08:12:22.161Z,100344.67
2023-01-23T08:14:54.993Z,100343.17
2023-01-23T08:17:30.855Z,100346.88
2023-01-23T08:20:28.375Z,100350.73
2023-01-23T08:23:04.452Z,100354.41
2023-01-23T08:25:43.150Z,100356.67
2023-01-23T08:28:18.798Z,100361.93
2023-01-23T08:31:44.599Z,100360.44
2023-01-23T08:35:07.168Z,100360.58
2023-01-23T08:38:30.217Z,100364.02
2023-01-23T08:41:06.572Z,100367.44
2023-01-23T08:44:04.574Z,100366.38
2023-01-23T08:50:08.166Z,100370.54
2023-01-23T08:52:42.130Z,100371.05
2023-01-23T08:55:15.473Z,100369.79
2023-01-23T08:57:49.688Z,100366.27
2023-01-23T09:00:50.587Z,100366.34
2023-01-23T09:04:13.940Z,100365.59
2023-01-23T09:07:59.998Z,100362.77
2023-01-23T09:10:37.623Z,100363.64
2023-01-23T09:13:59.102Z,100364.81
2023-01-23T09:17:02.352Z,100364.80
2023-01-23T09:20:03.163Z,100366.98
2023-01-23T09:22:36.817Z,100366.30
2023-01-23T09:25:35.816Z,100363.85
2023-01-23T09:28:12.182Z,100360.02
2023-01-23T09:34:07.255Z,100359.98
2023-01-23T09:37:28.442Z,100361.20
2023-01-23T09:40:06.309Z,100359.39
2023-01-23T09:42:41.956Z,100359.61
2023-01-23T09:45:47.879Z,100362.11
2023-01-23T09:48:31.973Z,100361.49
2023-01-23T09:51:12.130Z,100361.56
2023-01-23T09:54:18.675Z,100359.01
2023-01-23T09:57:43.794Z,100358.34
2023-01-23T10:04:02.580Z,100355.77
2023-01-23T10:06:50.104Z,100355.96
2023-01-23T10:14:17.359Z,100353.29
2023-01-23T10:17:14.279Z,100355.55
2023-01-23T10:20:37.471Z,100358.77
2023-01-23T10:23:41.926Z,100364.25
2023-01-23T10:26:38.138Z,100367.40
2023-01-23T10:29:19.057Z,100360.98
2023-01-23T10:31:58.677Z,100359.96
2023-01-23T10:34:59.645Z,100359.14
2023-01-23T10:37:42.569Z,100359.16
2023-01-23T10:43:40.879Z,100349.09
2023-01-23T10:46:40.714Z,100344.39
2023-01-23T10:49:12.796Z,100340.02
2023-01-23T10:51:50.753Z,100339.42
2023-01-23T10:54:51.760Z,100336.96
2023-01-23T10:57:28.156Z,100338.33
2023-01-23T11:00:07.196Z,100343.05
2023-01-23T11:03:24.627Z,100343.09
2023-01-23T11:09:04.740Z,100340.19
2023-01-23T11:12:07.331Z,100333.47
2023-01-23T11:14:43.115Z,100332.81
2023-01-23T11:17:20.778Z,100334.81
2023-01-23T11:19:58.313Z,100326.02
2023-01-23T11:22:41.143Z,100325.27
2023-01-23T11:25:41.900Z,100318.70
2023-01-23T11:29:01.564Z,100317.09
2023-01-23T11:31:38.297Z,100312.23
2023-01-23T11:34:17.284Z,100298.59
2023-01-23T11:36:56.657Z,100293.28
2023-01-23T11:39:43.968Z,100295.02
2023-01-23T11:42:22.270Z,100294.98
2023-01-23T11:44:58.530Z,100289.58
2023-01-23T11:47:50.292Z,100288.12
2023-01-23T11:54:12.152Z,100290.84
2023-01-23T11:57:23.044Z,100293.11
2023-01-23T12:00:19.057Z,100293.59
2023-01-23T12:03:14.591Z,100291.99
2023-01-23T12:06:19.924Z,100288.96
2023-01-23T12:09:10.999Z,100281.20
2023-01-23T12:14:58.880Z,100264.30
2023-01-23T12:17:58.220Z,100267.66
2023-01-23T12:20:37.507Z,100265.67
2023-01-23T12:23:21.155Z,100265.92
2023-01-23T12:26:04.764Z,100264.91
2023-01-23T12:28:58.725Z,100264.04
2023-01-23T12:38:42.048Z,100272.14
2023-01-23T12:41:45.214Z,100271.63
2023-01-23T12:44:26.338Z,100260.71
2023-01-23T12:47:32.090Z,100263.05
2023-01-23T12:50:13.271Z,100264.70
2023-01-23T12:55:57.098Z,100262.24
2023-01-23T12:58:34.779Z,100270.73
2023-01-23T13:01:51.802Z,100275.36
2023-01-23T13:05:27.206Z,100284.27
2023-01-23T13:08:07.617Z,100278.52
2023-01-23T13:14:29.183Z,100277.32
2023-01-23T13:17:31.879Z,100280.52
2023-01-23T13:20:51.853Z,100281.04
2023-01-23T13:23:33.671Z,100286.73
2023-01-23T13:26:38.246Z,100285.04
2023-01-23T13:30:15.341Z,100284.27
2023-01-23T13:32:50.719Z,100284.71
2023-01-23T13:36:15.476Z,100284.79
2023-01-23T13:39:41.728Z,100291.24
2023-01-23T13:42:45.512Z,100300.34
2023-01-23T13:45:30.088Z,100304.11
2023-01-23T14:33:54.268Z,100325.15
2023-01-23T14:36:31.971Z,100324.87
2023-01-23T14:39:15.526Z,100321.11
2023-01-23T14:41:49.818Z,100326.38
2023-01-23T14:47:37.822Z,100321.35
2023-01-23T14:50:23.539Z,100321.34
2023-01-23T14:53:04.533Z,100318.58
2023-01-23T14:55:42.393Z,100316.98
2023-01-23T15:01:46.658Z,100315.53
2023-01-23T15:04:47.296Z,100313.71
2023-01-23T15:07:45.951Z,100318.23
2023-01-23T15:10:32.114Z,100323.27
2023-01-23T15:13:37.607Z,100319.42
2023-01-23T15:16:20.137Z,100319.63
2023-01-23T15:19:29.168Z,100320.11
2023-01-23T15:22:47.024Z,100315.33
2023-01-23T15:25:45.285Z,100322.06
2023-01-23T15:29:09.080Z,100320.49
2023-01-23T15:31:50.115Z,100322.36
2023-01-23T15:34:54.345Z,100323.14
2023-01-23T15:37:33.290Z,100326.42
2023-01-23T15:43:21.778Z,100326.60
2023-01-23T15:45:56.869Z,100327.54
2023-01-23T15:48:31.238Z,100330.20
2023-01-23T15:51:55.507Z,100335.70
2023-01-23T15:54:38.733Z,100325.48
2023-01-23T15:57:14.890Z,100328.20
2023-01-23T16:00:18.080Z,100327.35
2023-01-23T16:02:56.865Z,100328.98
2023-01-23T16:05:32.853Z,100328.53
2023-01-23T16:08:28.868Z,100330.86
2023-01-23T16:11:02.849Z,100332.86
2023-01-23T16:13:36.065Z,100331.29
2023-01-23T16:16:32.045Z,100336.29
2023-01-23T16:19:14.566Z,100334.18
2023-01-23T16:22:03.868Z,100333.98
2023-01-23T16:25:05.695Z,100333.41
2023-01-23T16:28:04.713Z,100333.95
2023-01-23T16:30:42.124Z,100339.65
2023-01-23T16:33:17.963Z,100340.40
2023-01-23T16:35:55.480Z,100342.80
2023-01-23T16:42:01.171Z,100349.22
2023-01-23T16:44:35.501Z,100349.81
2023-01-23T16:47:11.363Z,100353.84
2023-01-23T16:49:54.188Z,100354.66
2023-01-23T16:58:58.977Z,100367.08
2023-01-23T17:01:36.543Z,100368.77
2023-01-23T17:04:18.941Z,100372.30
2023-01-23T17:06:54.713Z,100372.38
2023-01-23T17:09:51.895Z,100370.55
2023-01-23T17:12:56.468Z,100373.54
2023-01-23T17:15:31.880Z,100372.54
2023-01-23T17:18:05.376Z,100370.48
2023-01-23T17:20:40.884Z,100370.45
2023-01-23T17:23:28.982Z,100372.75
2023-01-23T17:26:28.625Z,100373.02
2023-01-23T17:29:04.780Z,100369.45
2023-01-23T17:31:44.611Z,100371.19
2023-01-23T17:34:29.801Z,100372.43
2023-01-23T17:37:01.715Z,100374.35
2023-01-23T17:39:39.218Z,100379.34
2023-01-23T17:42:36.020Z,100382.28
2023-01-23T17:45:38.764Z,100386.36
2023-01-23T17:48:43.409Z,100382.27
2023-01-23T17:51:20.967Z,100385.00
2023-01-23T17:53:56.552Z,100386.14
2023-01-23T17:59:50.750Z,100390.89
2023-01-23T18:02:50.118Z,100395.53
2023-01-23T18:05:46.399Z,100397.55
2023-01-23T18:08:22.803Z,100398.58
2023-01-23T18:17:38.860Z,100398.02
2023-01-23T18:20:21.131Z,100402.80
2023-01-23T18:22:59.517Z,100400.19
2023-01-23T18:26:00.640Z,100397.73
2023-01-23T18:32:44.219Z,100391.96
2023-01-23T18:35:30.582Z,100392.50
2023-01-23T18:38:50.665Z,100397.59
2023-01-23T18:41:58.823Z,100392.54
2023-01-23T18:48:52.108Z,100392.83
2023-01-23T18:51:56.970Z,100393.92
2023-01-23T18:54:59.324Z,100391.80
2023-01-23T18:57:46.370Z,100392.75
2023-01-23T19:00:56.595Z,100391.11
2023-01-23T19:03:40.558Z,100393.55
2023-01-23T19:06:38.337Z,100399.36
2023-01-23T19:09:52.492Z,100401.57
2023-01-23T19:12:38.301Z,100404.89
2023-01-23T19:15:25.797Z,100402.58
2023-01-23T19:18:06.750Z,100401.60
2023-01-23T19:24:46.658Z,100403.38
2023-01-23T19:27:46.443Z,100403.59
2023-01-23T19:30:23.369Z,100402.11
2023-01-23T19:32:56.651Z,100403.24
2023-01-23T19:35:37.544Z,100401.61
2023-01-23T19:39:23.207Z,100406.13
2023-01-23T19:41:56.990Z,100402.63
2023-01-23T19:45:18.447Z,100403.42
2023-01-23T19:48:42.515Z,100402.02
2023-01-23T19:51:45.023Z,100398.81
2023-01-23T19:54:19.867Z,100403.09
2023-01-23T20:00:21.577Z,100405.15
2023-01-23T20:03:04.385Z,100403.58
2023-01-23T20:05:38.169Z,100400.35
2023-01-23T20:08:13.706Z,100402.64
2023-01-23T20:10:47.077Z,100401.43
2023-01-23T20:13:22.105Z,100407.86
2023-01-23T20:16:44.012Z,100411.02
2023-01-23T20:19:44.754Z,100408.79
2023-01-23T20:22:20.931Z,100415.30
2023-01-23T20:24:55.499Z,100415.48
2023-01-23T20:31:13.678Z,100420.23
2023-01-23T20:33:48.232Z,100421.19
2023-01-23T20:36:23.131Z,100421.27
2023-01-23T20:39:22.237Z,100420.14
2023-01-23T20:41:57.568Z,100418.35
2023-01-23T20:47:35.364Z,100423.74
2023-01-23T20:50:32.760Z,100424.64
2023-01-23T20:53:34.235Z,100424.20
2023-01-23T20:56:38.288Z,100424.04
2023-01-23T20:59:26.019Z,100425.71
2023-01-23T21:02:19.048Z,100430.35
2023-01-23T21:04:57.304Z,100426.81
2023-01-23T21:07:30.421Z,100433.31
2023-01-23T21:10:06.362Z,100434.10
2023-01-23T21:12:38.216Z,100431.08
2023-01-23T21:15:38.465Z,100433.54
2023-01-23T21:18:13.859Z,100439.71
2023-01-23T21:20:50.543Z,100434.81
2023-01-23T21:23:27.466Z,100439.00
2023-01-23T21:26:04.386Z,100431.41
2023-01-23T21:28:40.499Z,100432.04
2023-01-23T21:32:00.831Z,100436.25
2023-01-23T21:34:41.336Z,100436.42
2023-01-23T21:37:19.124Z,100434.19
2023-01-23T21:40:18.767Z,100434.73
2023-01-23T21:42:57.378Z,100433.27
2023-01-23T21:45:38.210Z,100430.83
2023-01-23T21:48:14.668Z,100429.79
2023-01-23T21:50:49.882Z,100430.36
2023-01-23T21:53:29.391Z,100433.30
2023-01-23T21:56:52.167Z,100433.14
2023-01-23T22:00:13.844Z,100429.00
2023-01-23T22:02:49.231Z,100427.73
2023-01-23T22:05:22.112Z,100427.99
2023-01-23T22:08:04.459Z,100427.66
2023-01-23T22:10:38.633Z,100428.71
2023-01-23T22:13:12.444Z,100432.42
2023-01-23T22:15:45.309Z,100435.84
2023-01-23T22:18:19.568Z,100431.91
2023-01-23T22:21:21.076Z,100438.02
2023-01-23T22:24:22.310Z,100442.37
2023-01-23T22:26:55.199Z,100440.70
2023-01-23T22:29:27.828Z,100439.00
2023-01-23T22:32:03.216Z,100444.66
2023-01-23T22:34:38.658Z,100435.69
2023-01-23T22:37:13.261Z,100437.00
2023-01-23T22:39:46.489Z,100440.92
2023-01-23T22:42:21.135Z,100441.05
2023-01-23T22:44:56.834Z,100438.31
2023-01-23T22:48:00.667Z,100439.67
2023-01-23T22:50:39.487Z,100437.02
2023-01-23T22:53:17.809Z,100435.86
2023-01-23T22:55:50.388Z,100437.64
2023-01-23T22:58:24.116Z,100442.06
2023-01-23T23:01:04.897Z,100441.53
2023-01-23T23:04:25.684Z,100443.42
2023-01-23T23:07:01.629Z,100443.44
2023-01-23T23:09:33.690Z,100442.23
2023-01-23T23:12:14.760Z,100440.28
2023-01-23T23:14:48.573Z,100440.30
2023-01-23T23:17:51.844Z,100445.94
2023-01-23T23:21:15.258Z,100446.36
2023-01-23T23:24:15.610Z,100448.08
2023-01-23T23:26:48.946Z,100447.77
2023-01-23T23:29:22.724Z,100446.30
2023-01-23T23:32:03.312Z,100445.95
2023-01-23T23:34:38.799Z,100445.40
2023-01-23T23:37:12.892Z,100446.47
2023-01-23T23:39:46.898Z,100441.02
2023-01-23T23:42:20.718Z,100443.86
2023-01-23T23:45:21.060Z,100443.50
2023-01-23T23:47:55.887Z,100441.04
2023-01-23T23:50:30.215Z,100442.65
2023-01-23T23:56:34.285Z,100427.56
2023-01-23T23:59:32.120Z,100428.42
